Time;durP1;ratioP1;P1;durP2;ratioP2;P2;SDS_P1;SDS_P2;PMS_P1;PMS_P2;Temp;Humidity;BMP_temperature;BMP_pressure;BME280_temperature;BME280_humidity;BME280_pressure;Samples;Min_cycle;Max_cycle;Signal;HPM_P1;HPM_P2
2021/07/04 00:00:50;;;;;;;4.53;4.13;;;23.00;73.00;;;;;;6374109;27;20549;-65
2021/07/04 00:03:53;;;;;;;4.27;3.97;;;23.00;72.80;;;;;;6374463;27;20230;-65
2021/07/04 00:06:57;;;;;;;5.17;4.67;;;23.00;72.80;;;;;;6374184;27;20248;-65
2021/07/04 00:10:01;;;;;;;4.93;3.53;;;23.00;72.90;;;;;;6374233;27;20236;-65
2021/07/04 00:13:05;;;;;;;8.23;5.07;;;23.00;73.20;;;;;;6374350;27;20232;-65
2021/07/04 00:16:09;;;;;;;4.20;3.90;;;23.00;73.30;;;;;;6374157;27;20229;-65
2021/07/04 00:19:13;;;;;;;4.97;4.57;;;23.00;72.60;;;;;;6374290;27;20233;-65
2021/07/04 00:22:16;;;;;;;5.63;4.20;;;23.00;72.20;;;;;;6374439;27;20225;-65
2021/07/04 00:25:20;;;;;;;5.43;5.03;;;22.90;72.00;;;;;;6373978;27;20247;-65
2021/07/04 00:28:24;;;;;;;6.37;5.77;;;22.90;71.90;;;;;;6374460;27;20224;-66
2021/07/04 00:31:28;;;;;;;4.60;4.20;;;22.90;72.10;;;;;;6373567;27;20229;-65
2021/07/04 00:34:31;;;;;;;4.60;4.30;;;22.80;71.90;;;;;;6374046;27;20240;-66
2021/07/04 00:37:34;;;;;;;4.30;4.00;;;22.80;72.20;;;;;;6374072;27;20567;-65
2021/07/04 00:40:40;;;;;;;5.23;4.73;;;22.80;72.00;;;;;;6373912;27;20240;-65
2021/07/04 00:43:43;;;;;;;4.90;4.50;;;22.80;72.20;;;;;;6378636;27;20570;-69
2021/07/04 00:46:47;;;;;;;4.40;4.00;;;22.80;72.40;;;;;;6378345;27;20224;-69
2021/07/04 00:49:50;;;;;;;4.43;4.10;;;22.70;72.40;;;;;;6378566;27;20243;-71
2021/07/04 00:52:55;;;;;;;4.37;3.97;;;22.80;72.30;;;;;;6377905;27;20225;-71
2021/07/04 00:55:59;;;;;;;4.80;4.40;;;22.70;72.30;;;;;;6378386;27;20232;-70
2021/07/04 00:59:02;;;;;;;5.80;5.23;;;22.70;72.20;;;;;;6378090;27;20221;-70
2021/07/04 01:02:05;;;;;;;6.03;5.47;;;22.60;72.60;;;;;;6377946;27;20225;-70
2021/07/04 01:05:10;;;;;;;4.90;4.50;;;22.60;72.90;;;;;;6377817;27;20668;-69
2021/07/04 01:08:13;;;;;;;5.03;4.60;;;22.70;72.90;;;;;;6377962;27;20205;-70
2021/07/04 01:11:18;;;;;;;5.77;4.10;;;22.60;72.80;;;;;;6377672;27;20535;-70
2021/07/04 01:14:22;;;;;;;5.60;5.10;;;22.50;72.60;;;;;;6377407;27;20240;-70
2021/07/04 01:17:26;;;;;;;4.67;4.27;;;22.60;72.70;;;;;;6377986;27;20225;-71
2021/07/04 01:20:31;;;;;;;5.17;4.77;;;22.50;72.50;;;;;;6378091;27;20233;-71
2021/07/04 01:23:35;;;;;;;5.13;4.73;;;22.50;72.70;;;;;;6377752;27;20213;-70
2021/07/04 01:26:39;;;;;;;6.50;5.03;;;22.50;72.60;;;;;;6377660;27;20693;-70
2021/07/04 01:29:42;;;;;;;5.30;4.80;;;22.50;72.80;;;;;;6377794;27;20567;-71
2021/07/04 01:32:45;;;;;;;5.20;4.77;;;22.50;72.80;;;;;;6377518;27;20227;-71
2021/07/04 01:35:49;;;;;;;4.93;4.53;;;22.50;73.10;;;;;;6377374;27;20695;-71
2021/07/04 01:38:53;;;;;;;5.40;4.90;;;22.40;72.90;;;;;;6376762;27;20572;-71
2021/07/04 01:41:57;;;;;;;5.10;4.70;;;22.40;72.70;;;;;;6377722;27;20228;-71
2021/07/04 01:45:00;;;;;;;4.50;4.10;;;22.40;73.20;;;;;;6376910;27;20229;-70
2021/07/04 01:48:03;;;;;;;5.10;4.47;;;22.40;73.00;;;;;;6377624;27;20221;-70
2021/07/04 01:51:06;;;;;;;6.70;6.10;;;22.30;73.30;;;;;;6377155;27;20231;-70
2021/07/04 01:54:11;;;;;;;5.60;5.10;;;22.20;73.80;;;;;;6376336;27;20228;-71
2021/07/04 01:57:14;;;;;;;5.30;4.83;;;22.10;74.10;;;;;;6376782;27;20220;-70
2021/07/04 02:00:19;;;;;;;6.10;5.20;;;22.10;74.30;;;;;;6376746;27;20225;-70
2021/07/04 02:03:22;;;;;;;5.60;5.10;;;22.10;74.40;;;;;;6377179;27;20228;-69
2021/07/04 02:06:26;;;;;;;8.43;5.70;;;22.10;74.20;;;;;;6376807;27;20798;-69
2021/07/04 02:09:30;;;;;;;6.07;5.57;;;22.10;74.50;;;;;;6376823;27;20225;-69
2021/07/04 02:12:33;;;;;;;6.50;5.87;;;22.10;74.60;;;;;;6376586;27;20233;-69
2021/07/04 02:15:39;;;;;;;5.20;4.70;;;22.10;74.40;;;;;;6376140;27;20568;-69
2021/07/04 02:18:43;;;;;;;5.50;5.10;;;22.10;74.60;;;;;;6376428;27;20224;-70
2021/07/04 02:21:46;;;;;;;7.80;5.40;;;22.10;74.70;;;;;;6376541;27;20221;-69
2021/07/04 02:24:51;;;;;;;6.40;5.50;;;22.10;74.50;;;;;;6375938;27;20232;-70
2021/07/04 02:27:54;;;;;;;6.73;6.23;;;22.30;74.80;;;;;;6376276;27;20225;-70
2021/07/04 02:30:59;;;;;;;6.07;5.57;;;22.30;74.70;;;;;;6376114;27;20239;-70
2021/07/04 02:34:02;;;;;;;5.67;5.17;;;22.30;74.60;;;;;;6376052;27;20240;-70
2021/07/04 02:37:05;;;;;;;5.67;5.20;;;22.30;74.70;;;;;;6375665;27;20233;-70
2021/07/04 02:40:11;;;;;;;6.53;5.93;;;22.40;74.80;;;;;;6376163;27;20224;-71
2021/07/04 02:43:17;;;;;;;6.10;5.50;;;22.50;74.80;;;;;;6375686;27;20224;-70
2021/07/04 02:46:20;;;;;;;6.13;5.43;;;22.50;75.40;;;;;;6375846;27;20236;-70
2021/07/04 02:49:23;;;;;;;5.63;5.00;;;22.50;75.40;;;;;;6375426;27;20289;-70
2021/07/04 02:52:26;;;;;;;5.40;5.00;;;22.40;75.70;;;;;;6375609;27;20221;-71
2021/07/04 02:55:31;;;;;;;6.03;5.23;;;22.40;75.70;;;;;;6375391;27;20231;-70
2021/07/04 02:58:34;;;;;;;7.20;5.07;;;22.40;76.00;;;;;;6375295;27;20235;-68
2021/07/04 03:01:37;;;;;;;7.77;5.23;;;22.30;76.80;;;;;;6375451;27;20562;-68
2021/07/04 03:04:40;;;;;;;6.13;5.20;;;22.30;77.20;;;;;;6374242;27;20686;-68
2021/07/04 03:07:45;;;;;;;5.93;5.30;;;22.10;78.60;;;;;;6375096;27;20251;-68
2021/07/04 03:10:49;;;;;;;6.80;6.17;;;22.00;79.20;;;;;;6374826;27;20247;-70
2021/07/04 03:13:52;;;;;;;7.63;6.93;;;22.00;78.90;;;;;;6374816;27;20229;-69
2021/07/04 03:16:56;;;;;;;9.40;7.03;;;22.10;78.30;;;;;;6374775;27;20232;-68
2021/07/04 03:19:59;;;;;;;7.10;6.40;;;22.10;78.20;;;;;;6375077;27;20236;-68
2021/07/04 03:23:02;;;;;;;6.53;5.93;;;22.10;78.30;;;;;;6374832;27;20712;-69
2021/07/04 03:26:06;;;;;;;6.50;5.90;;;22.10;78.50;;;;;;6374812;27;20232;-66
2021/07/04 03:29:10;;;;;;;7.47;6.70;;;22.00;78.80;;;;;;6374929;27;20219;-69
2021/07/04 03:32:13;;;;;;;5.70;5.13;;;22.00;79.00;;;;;;6374974;27;20290;-69
2021/07/04 03:35:16;;;;;;;6.13;5.53;;;21.80;82.50;;;;;;6374748;27;20307;-68
2021/07/04 03:38:20;;;;;;;5.60;5.10;;;21.60;84.00;;;;;;6374980;27;20205;-68
2021/07/04 03:41:24;;;;;;;7.10;6.20;;;21.50;85.40;;;;;;6365072;27;20638;-68
2021/07/04 03:44:27;;;;;;;7.63;5.17;;;21.40;86.70;;;;;;6374288;27;20239;-68
2021/07/04 03:47:30;;;;;;;5.47;5.00;;;21.20;87.40;;;;;;6374768;27;20669;-69
2021/07/04 03:50:34;;;;;;;6.37;5.77;;;21.30;87.30;;;;;;6374960;27;20608;-68
2021/07/04 03:53:37;;;;;;;6.73;5.43;;;21.30;87.90;;;;;;6374916;27;20225;-68
2021/07/04 03:56:42;;;;;;;6.17;5.67;;;21.30;88.20;;;;;;6374361;27;20228;-68
2021/07/04 03:59:47;;;;;;;6.37;5.17;;;21.30;88.30;;;;;;6374878;27;20221;-68
2021/07/04 04:02:50;;;;;;;6.50;6.00;;;21.20;88.40;;;;;;6374659;27;20225;-68
2021/07/04 04:05:56;;;;;;;5.83;5.23;;;21.20;89.10;;;;;;6374816;27;20239;-69
2021/07/04 04:08:59;;;;;;;5.50;5.00;;;21.30;89.50;;;;;;6374267;27;20235;-68
2021/07/04 04:12:04;;;;;;;6.33;5.93;;;21.30;89.70;;;;;;6374865;27;20247;-69
2021/07/04 04:15:09;;;;;;;7.07;6.37;;;21.30;90.00;;;;;;6374235;27;20227;-69
2021/07/04 04:18:14;;;;;;;7.60;6.90;;;21.40;88.80;;;;;;6379031;27;20673;-69
2021/07/04 04:21:17;;;;;;;7.37;6.63;;;21.50;87.60;;;;;;6377781;27;20236;-69
2021/07/04 04:24:20;;;;;;;7.90;6.03;;;21.60;86.90;;;;;;6379023;27;20225;-68
2021/07/04 04:27:25;;;;;;;7.10;6.50;;;21.70;86.00;;;;;;6379189;27;20708;-69
2021/07/04 04:30:28;;;;;;;7.47;6.80;;;21.80;85.60;;;;;;6378896;27;20236;-69
2021/07/04 04:33:31;;;;;;;6.93;6.20;;;21.80;85.30;;;;;;6378959;27;20229;-69
2021/07/04 04:36:34;;;;;;;9.73;7.90;;;21.90;85.20;;;;;;6378371;27;20254;-69
2021/07/04 04:39:38;;;;;;;8.67;7.43;;;22.00;85.10;;;;;;6378584;27;20693;-70
2021/07/04 04:42:42;;;;;;;6.97;6.37;;;21.90;84.90;;;;;;6378461;27;20237;-69
2021/07/04 04:45:46;;;;;;;9.33;7.40;;;22.00;85.20;;;;;;6373813;27;20561;-69
2021/07/04 04:48:49;;;;;;;9.93;7.47;;;22.00;84.90;;;;;;6378086;27;20613;-68
2021/07/04 04:51:52;;;;;;;7.83;7.13;;;21.90;84.90;;;;;;6378530;27;20572;-68
2021/07/04 04:54:55;;;;;;;7.70;6.90;;;21.90;85.00;;;;;;6378062;27;20700;-67
2021/07/04 04:58:00;;;;;;;7.70;7.00;;;22.00;84.80;;;;;;6378490;27;20565;-68
2021/07/04 05:01:03;;;;;;;8.30;6.40;;;22.00;84.90;;;;;;6378123;27;20562;-68
2021/07/04 05:04:08;;;;;;;7.20;6.50;;;22.00;84.50;;;;;;6378438;27;20239;-68
2021/07/04 05:07:12;;;;;;;8.30;6.60;;;21.90;84.10;;;;;;6378011;27;20232;-68
2021/07/04 05:10:15;;;;;;;10.53;7.50;;;21.80;84.10;;;;;;6378308;27;20231;-69
2021/07/04 05:13:19;;;;;;;9.73;7.40;;;21.80;84.20;;;;;;6377873;27;20713;-69
2021/07/04 05:16:23;;;;;;;7.53;6.87;;;21.90;84.40;;;;;;6377766;27;20221;-68
2021/07/04 05:19:26;;;;;;;7.90;6.63;;;21.70;84.80;;;;;;6377922;27;20274;-68
2021/07/04 05:22:29;;;;;;;9.83;7.50;;;21.60;86.30;;;;;;6377601;27;20225;-70
2021/07/04 05:25:32;;;;;;;7.70;7.10;;;21.50;86.80;;;;;;6377806;27;20225;-68
2021/07/04 05:28:38;;;;;;;10.63;7.77;;;21.50;87.00;;;;;;6376677;27;20232;-63
2021/07/04 05:31:41;;;;;;;10.53;6.43;;;21.50;87.40;;;;;;6377952;27;20244;-70
2021/07/04 05:34:45;;;;;;;8.63;6.80;;;21.60;88.30;;;;;;6377277;27;20256;-69
2021/07/04 05:37:48;;;;;;;6.80;6.20;;;21.60;88.50;;;;;;6377454;27;20225;-69
2021/07/04 05:40:52;;;;;;;8.17;6.90;;;21.70;89.10;;;;;;6377257;27;20231;-64
2021/07/04 05:43:57;;;;;;;7.37;6.30;;;21.70;89.80;;;;;;6377328;27;20225;-64
2021/07/04 05:47:00;;;;;;;8.30;7.10;;;21.70;90.30;;;;;;6377269;27;20698;-63
2021/07/04 05:50:04;;;;;;;8.13;7.20;;;21.80;90.80;;;;;;6377006;27;20224;-63
2021/07/04 05:53:07;;;;;;;8.47;7.60;;;21.80;90.80;;;;;;6372005;27;20239;-64
2021/07/04 05:56:11;;;;;;;7.53;6.83;;;21.80;90.30;;;;;;6376601;27;20575;-65
2021/07/04 05:59:15;;;;;;;8.30;7.47;;;21.90;90.20;;;;;;6377094;27;20208;-64
2021/07/04 06:02:18;;;;;;;8.80;7.77;;;21.80;90.20;;;;;;6377093;27;20203;-65
2021/07/04 06:05:23;;;;;;;7.80;7.00;;;21.90;90.70;;;;;;6376995;27;20225;-64
2021/07/04 06:08:26;;;;;;;8.93;8.03;;;21.80;91.50;;;;;;6376351;27;20233;-65
2021/07/04 06:11:29;;;;;;;9.53;7.30;;;21.80;91.80;;;;;;6376964;27;20220;-65
2021/07/04 06:14:34;;;;;;;8.30;6.93;;;21.80;92.60;;;;;;6376076;27;20235;-64
2021/07/04 06:17:37;;;;;;;8.83;7.40;;;21.80;92.50;;;;;;6376376;27;20243;-64
2021/07/04 06:20:40;;;;;;;8.57;7.70;;;21.80;91.40;;;;;;6376105;27;20735;-64
2021/07/04 06:23:43;;;;;;;10.03;7.80;;;21.80;92.10;;;;;;6376626;27;20231;-65
2021/07/04 06:26:47;;;;;;;9.20;8.27;;;21.80;92.00;;;;;;6376376;27;20228;-64
2021/07/04 06:29:51;;;;;;;8.77;7.33;;;22.00;91.80;;;;;;6376230;27;20673;-64
2021/07/04 06:32:55;;;;;;;8.77;7.33;;;22.00;91.50;;;;;;6376306;27;20538;-64
2021/07/04 06:35:59;;;;;;;8.63;7.70;;;22.10;91.30;;;;;;6375857;27;20228;-64
2021/07/04 06:39:02;;;;;;;7.63;6.80;;;22.20;91.40;;;;;;6376403;27;20239;-65
2021/07/04 06:42:05;;;;;;;8.43;7.57;;;22.30;91.70;;;;;;6375885;27;20229;-63
2021/07/04 06:45:11;;;;;;;9.00;6.93;;;22.40;90.90;;;;;;6375819;27;20243;-67
2021/07/04 06:48:14;;;;;;;7.87;7.10;;;22.30;90.50;;;;;;6375628;27;20564;-67
2021/07/04 06:51:18;;;;;;;9.20;7.77;;;22.40;90.50;;;;;;6375839;27;20365;-67
2021/07/04 06:54:21;;;;;;;8.17;7.27;;;22.40;90.30;;;;;;6375577;27;20229;-67
2021/07/04 06:57:27;;;;;;;11.23;7.77;;;22.40;90.50;;;;;;6375450;27;20229;-67
2021/07/04 07:00:32;;;;;;;9.50;6.90;;;22.30;90.80;;;;;;6375368;27;20228;-67
2021/07/04 07:03:35;;;;;;;8.20;7.40;;;22.30;91.40;;;;;;6375878;27;20235;-68
2021/07/04 07:06:38;;;;;;;8.37;7.30;;;22.20;92.00;;;;;;6374922;27;20216;-68
2021/07/04 07:09:41;;;;;;;8.80;7.70;;;22.20;92.40;;;;;;6375309;27;20225;-63
2021/07/04 07:12:45;;;;;;;9.37;8.47;;;22.20;91.80;;;;;;6375131;27;20236;-63
2021/07/04 07:15:51;;;;;;;8.20;7.50;;;22.10;92.20;;;;;;6374780;27;20293;-63
2021/07/04 07:18:54;;;;;;;12.43;7.90;;;22.10;91.60;;;;;;6375736;27;20233;-63
2021/07/04 07:21:59;;;;;;;8.37;7.57;;;22.00;91.50;;;;;;6373886;27;20229;-62
2021/07/04 07:25:03;;;;;;;8.70;7.20;;;22.10;91.40;;;;;;6375011;27;20233;-62
2021/07/04 07:28:06;;;;;;;8.87;7.77;;;22.20;91.10;;;;;;6375150;27;20225;-62
2021/07/04 07:31:11;;;;;;;8.23;7.50;;;22.40;91.00;;;;;;6375024;27;20232;-64
2021/07/04 07:34:14;;;;;;;8.73;7.83;;;22.70;90.80;;;;;;6374627;27;20239;-63
2021/07/04 07:37:18;;;;;;;7.57;6.87;;;22.90;90.80;;;;;;6375067;27;20235;-69
2021/07/04 07:40:21;;;;;;;7.47;6.77;;;23.20;90.50;;;;;;6374968;27;20235;-68
2021/07/04 07:43:25;;;;;;;8.20;7.50;;;23.40;89.70;;;;;;6375415;27;20243;-68
2021/07/04 07:46:29;;;;;;;8.27;7.53;;;23.70;88.40;;;;;;6374530;27;20252;-69
2021/07/04 07:49:32;;;;;;;12.20;7.70;;;23.90;87.20;;;;;;6374809;27;20236;-61
2021/07/04 07:52:36;;;;;;;7.63;6.93;;;24.20;87.10;;;;;;6379198;27;20231;-63
2021/07/04 07:55:39;;;;;;;7.63;6.83;;;24.50;84.90;;;;;;6379900;27;20677;-68
2021/07/04 07:58:44;;;;;;;9.03;8.13;;;24.90;83.10;;;;;;6375080;27;20224;-67
2021/07/04 08:01:48;;;;;;;10.30;9.10;;;25.30;80.90;;;;;;6379781;27;20243;-68
2021/07/04 08:04:52;;;;;;;11.37;8.97;;;25.70;79.80;;;;;;6380053;27;20228;-68
2021/07/04 08:07:55;;;;;;;8.10;7.40;;;25.80;78.70;;;;;;6381212;27;20220;-68
2021/07/04 08:10:58;;;;;;;9.00;8.10;;;25.90;77.00;;;;;;6379915;27;20566;-69
2021/07/04 08:14:01;;;;;;;8.77;7.87;;;26.10;76.30;;;;;;6378952;27;20240;-69
2021/07/04 08:17:06;;;;;;;7.90;7.10;;;26.30;75.60;;;;;;6379989;27;20239;-70
2021/07/04 08:20:12;;;;;;;8.13;7.43;;;26.30;73.10;;;;;;6379369;27;20227;-69
2021/07/04 08:23:16;;;;;;;7.30;6.70;;;26.30;72.60;;;;;;6379355;27;20181;-69
2021/07/04 08:26:19;;;;;;;9.43;7.70;;;26.30;72.50;;;;;;6378988;27;20221;-69
2021/07/04 08:29:23;;;;;;;6.50;6.00;;;26.50;71.50;;;;;;6379336;27;20200;-69
2021/07/04 08:32:27;;;;;;;6.67;5.97;;;26.80;68.20;;;;;;6379189;27;20204;-69
2021/07/04 08:35:30;;;;;;;6.13;5.53;;;27.00;65.70;;;;;;6379485;27;20232;-69
2021/07/04 08:38:35;;;;;;;6.33;5.73;;;27.10;63.90;;;;;;6378444;27;20547;-69
2021/07/04 08:41:38;;;;;;;8.10;6.80;;;27.10;63.60;;;;;;6379452;27;20224;-70
2021/07/04 08:44:47;;;;;;;6.67;6.00;;;27.20;62.30;;;;;;6379042;27;20231;-69
2021/07/04 08:47:53;;;;;;;5.80;5.30;;;27.40;61.90;;;;;;6378758;27;20762;-70
2021/07/04 08:50:57;;;;;;;5.80;5.20;;;27.30;60.10;;;;;;6378986;27;20230;-70
2021/07/04 08:54:01;;;;;;;5.63;5.13;;;27.10;59.20;;;;;;6378306;27;20604;-69
2021/07/04 08:57:08;;;;;;;5.10;4.70;;;27.20;59.60;;;;;;6378905;27;20232;-70
2021/07/04 09:00:19;;;;;;;5.57;5.17;;;27.30;59.70;;;;;;6378463;27;20228;-69
2021/07/04 09:03:27;;;;;;;6.70;5.40;;;27.40;59.50;;;;;;6362822;27;20228;-69
2021/07/04 09:06:38;;;;;;;6.03;5.53;;;27.30;59.70;;;;;;6378062;27;20232;-69
2021/07/04 09:09:41;;;;;;;6.27;5.67;;;27.30;60.20;;;;;;6378142;27;20232;-69
2021/07/04 09:12:46;;;;;;;6.30;5.70;;;27.00;60.50;;;;;;6377902;27;20232;-69
2021/07/04 09:16:03;;;;;;;6.77;6.17;;;26.80;62.00;;;;;;6377804;27;20228;-69
2021/07/04 09:19:12;;;;;;;6.90;6.20;;;26.70;62.80;;;;;;6377887;27;20235;-70
2021/07/04 09:22:15;;;;;;;6.20;5.63;;;26.50;63.50;;;;;;6377905;27;20224;-70
2021/07/04 09:25:20;;;;;;;6.00;5.60;;;26.30;63.10;;;;;;6377570;27;20239;-70
2021/07/04 09:28:23;;;;;;;6.40;5.77;;;26.20;63.30;;;;;;6377846;27;20224;-70
2021/07/04 09:31:27;;;;;;;5.30;4.90;;;26.10;63.50;;;;;;6377395;27;20231;-70
2021/07/04 09:34:31;;;;;;;6.00;5.40;;;25.90;63.20;;;;;;6377460;27;20228;-70
2021/07/04 09:37:37;;;;;;;5.33;4.97;;;25.90;63.70;;;;;;6377231;27;20232;-70
2021/07/04 09:40:40;;;;;;;6.80;6.20;;;26.10;63.80;;;;;;6377860;27;20235;-70
2021/07/04 09:43:44;;;;;;;6.47;5.87;;;26.20;63.90;;;;;;6376768;27;20224;-70
2021/07/04 09:47:09;;;;;;;5.77;5.27;;;26.40;63.90;;;;;;6377830;27;20691;-70
2021/07/04 09:50:14;;;;;;;6.40;5.90;;;26.40;64.00;;;;;;6352678;28;20599;-63
2021/07/04 09:53:20;;;;;;;5.77;5.30;;;26.30;64.10;;;;;;6352594;28;20185;-71
2021/07/04 09:56:25;;;;;;;6.10;5.50;;;26.10;65.00;;;;;;6354170;27;20225;-68
2021/07/04 09:59:32;;;;;;;6.60;6.03;;;26.10;65.50;;;;;;6374368;27;20229;-68
2021/07/04 10:02:35;;;;;;;6.57;6.07;;;26.00;65.80;;;;;;6351531;27;20220;-64
2021/07/04 10:05:42;;;;;;;8.37;6.80;;;25.90;66.80;;;;;;6341724;28;20650;-65
2021/07/04 10:08:45;;;;;;;7.20;6.50;;;26.00;67.10;;;;;;6350904;28;20956;-64
2021/07/04 10:11:49;;;;;;;7.53;6.73;;;26.30;67.00;;;;;;6350978;28;20221;-64
2021/07/04 10:14:52;;;;;;;6.67;5.90;;;26.40;66.60;;;;;;6350304;28;20224;-64
2021/07/04 10:17:57;;;;;;;6.90;6.30;;;26.60;66.80;;;;;;6351377;27;20225;-64
2021/07/04 10:21:01;;;;;;;7.77;7.03;;;26.70;67.50;;;;;;6351072;28;20233;-64
2021/07/04 10:24:07;;;;;;;6.87;6.17;;;26.70;67.40;;;;;;6350469;28;20232;-62
2021/07/04 10:27:13;;;;;;;7.03;6.40;;;26.60;67.10;;;;;;6349742;28;20251;-62
2021/07/04 10:30:17;;;;;;;6.33;5.83;;;26.30;67.00;;;;;;6350227;27;20296;-62
2021/07/04 10:33:23;;;;;;;6.00;5.40;;;26.20;67.60;;;;;;6350866;28;20228;-62
2021/07/04 10:36:27;;;;;;;6.50;5.80;;;26.10;67.80;;;;;;6350290;28;20239;-63
2021/07/04 10:39:32;;;;;;;5.63;5.20;;;26.10;67.50;;;;;;6350355;27;20251;-63
2021/07/04 10:42:37;;;;;;;7.27;6.67;;;26.10;66.00;;;;;;6348822;28;20697;-62
2021/07/04 10:45:42;;;;;;;7.27;6.67;;;26.10;66.50;;;;;;6350788;28;20666;-62
2021/07/04 10:48:56;;;;;;;7.73;7.13;;;26.10;68.00;;;;;;6350230;28;20239;-62
2021/07/04 10:52:02;;;;;;;6.30;5.80;;;25.90;69.50;;;;;;6350342;28;20229;-62
2021/07/04 10:55:07;;;;;;;6.87;6.37;;;25.80;70.10;;;;;;6349629;28;20237;-62
2021/07/04 10:58:11;;;;;;;7.20;6.50;;;25.70;70.40;;;;;;6350026;28;20240;-62
2021/07/04 11:01:48;;;;;;;7.37;6.73;;;25.80;69.80;;;;;;6349799;27;20236;-62
2021/07/04 11:04:55;;;;;;;7.63;7.03;;;25.80;70.00;;;;;;6349575;28;20225;-62
2021/07/04 11:08:09;;;;;;;6.17;5.67;;;25.80;70.00;;;;;;6349851;28;20217;-62
2021/07/04 11:11:14;;;;;;;7.50;6.80;;;25.90;70.10;;;;;;6374438;27;20720;-63
2021/07/04 11:14:17;;;;;;;6.83;6.23;;;26.00;69.60;;;;;;6349723;28;20237;-62
2021/07/04 11:17:20;;;;;;;7.67;7.07;;;26.00;69.50;;;;;;6349685;28;20539;-63
2021/07/04 11:20:29;;;;;;;7.97;7.27;;;26.00;69.50;;;;;;6349356;28;20225;-63
2021/07/04 11:23:34;;;;;;;7.80;7.10;;;26.10;69.50;;;;;;6350157;28;20224;-64
2021/07/04 11:26:37;;;;;;;7.23;6.57;;;26.00;69.50;;;;;;6348593;28;20682;-62
2021/07/04 11:30:00;;;;;;;7.97;7.30;;;25.80;69.80;;;;;;6349608;28;20307;-63
2021/07/04 11:33:24;;;;;;;6.83;6.33;;;25.90;70.40;;;;;;6349502;28;20228;-62
2021/07/04 11:36:30;;;;;;;7.20;6.60;;;26.10;70.80;;;;;;6339343;28;20233;-63
2021/07/04 11:39:35;;;;;;;7.70;7.10;;;26.10;69.80;;;;;;6349430;28;20233;-62
2021/07/04 11:42:38;;;;;;;6.83;6.23;;;26.10;70.50;;;;;;6348982;28;20586;-64
2021/07/04 11:45:48;;;;;;;7.57;6.77;;;26.00;71.00;;;;;;6349163;28;20229;-63
2021/07/04 11:48:56;;;;;;;6.90;6.30;;;25.90;70.40;;;;;;6349155;28;20233;-63
2021/07/04 11:52:03;;;;;;;7.17;6.60;;;25.90;69.60;;;;;;6349606;28;20228;-63
2021/07/04 11:55:09;;;;;;;8.57;7.70;;;26.00;70.20;;;;;;6349126;28;20229;-63
2021/07/04 11:58:12;;;;;;;7.77;7.07;;;25.90;72.60;;;;;;6349351;28;20232;-63
2021/07/04 12:01:18;;;;;;;7.60;6.90;;;26.10;71.90;;;;;;6348925;28;20270;-63
2021/07/04 12:04:30;;;;;;;7.10;6.60;;;26.40;71.50;;;;;;6349042;28;20233;-63
2021/07/04 12:07:33;;;;;;;6.70;6.10;;;26.50;70.80;;;;;;6348483;28;20221;-62
2021/07/04 12:10:48;;;;;;;7.63;6.93;;;26.60;69.90;;;;;;6349118;28;20229;-63
2021/07/04 12:13:51;;;;;;;7.00;6.00;;;26.50;68.80;;;;;;6348560;28;20248;-61
2021/07/04 12:16:55;;;;;;;7.43;6.83;;;26.30;67.50;;;;;;6348929;28;20225;-62
2021/07/04 12:20:02;;;;;;;7.10;5.97;;;26.50;67.70;;;;;;6348226;28;20562;-64
2021/07/04 12:23:09;;;;;;;7.40;6.80;;;26.60;67.50;;;;;;6348156;28;20278;-64
2021/07/04 12:26:15;;;;;;;6.33;5.83;;;26.60;67.90;;;;;;6349010;28;20225;-62
2021/07/04 12:29:18;;;;;;;6.60;6.00;;;26.40;67.90;;;;;;6348682;28;20198;-62
2021/07/04 12:32:21;;;;;;;6.17;5.67;;;26.40;67.20;;;;;;6344810;28;20205;-64
2021/07/04 12:35:28;;;;;;;6.67;6.07;;;26.60;67.60;;;;;;6344697;28;20555;-62
2021/07/04 12:38:36;;;;;;;6.40;5.90;;;26.30;67.90;;;;;;6349826;28;20225;-64
2021/07/04 12:41:42;;;;;;;7.13;6.40;;;26.40;68.00;;;;;;6349631;27;20228;-62
2021/07/04 12:45:00;;;;;;;7.07;6.37;;;26.50;68.00;;;;;;6350489;28;20560;-63
2021/07/04 12:48:05;;;;;;;6.73;6.20;;;26.70;67.60;;;;;;6353038;27;20232;-62
2021/07/04 12:51:09;;;;;;;6.33;5.73;;;26.40;67.80;;;;;;6353152;28;20589;-63
2021/07/04 12:54:20;;;;;;;7.07;6.27;;;26.40;67.40;;;;;;6352649;27;20229;-63
2021/07/04 12:57:33;;;;;;;6.07;5.63;;;26.40;66.50;;;;;;6353286;28;20225;-64
2021/07/04 13:00:36;;;;;;;6.57;5.90;;;26.50;66.50;;;;;;6352588;28;20225;-63
2021/07/04 13:03:41;;;;;;;6.50;5.90;;;26.60;66.50;;;;;;6352843;28;20229;-64
2021/07/04 13:06:47;;;;;;;6.33;5.83;;;26.80;65.80;;;;;;6352526;28;20225;-62
2021/07/04 13:09:50;;;;;;;6.67;6.07;;;26.90;65.20;;;;;;6352785;28;20244;-62
2021/07/04 13:12:55;;;;;;;6.77;6.20;;;26.70;65.60;;;;;;6352457;28;20228;-62
2021/07/04 13:16:13;;;;;;;6.47;5.87;;;26.80;65.70;;;;;;6347108;28;20236;-62
2021/07/04 13:19:22;;;;;;;6.70;6.10;;;26.80;65.70;;;;;;6351857;28;20236;-62
2021/07/04 13:22:28;;;;;;;7.30;6.80;;;26.70;65.10;;;;;;6352276;27;20220;-63
2021/07/04 13:25:33;;;;;;;6.33;5.80;;;26.80;65.50;;;;;;6351858;28;20232;-63
2021/07/04 13:28:37;;;;;;;6.60;5.70;;;27.00;64.70;;;;;;6352031;28;20221;-64
2021/07/04 13:31:40;;;;;;;7.67;6.97;;;27.30;64.30;;;;;;6351496;28;20229;-62
2021/07/04 13:34:46;;;;;;;6.10;5.60;;;27.30;63.80;;;;;;6351828;27;20235;-63
2021/07/04 13:37:58;;;;;;;8.00;6.27;;;27.40;64.30;;;;;;6351609;28;20225;-63
2021/07/04 13:41:01;;;;;;;6.67;6.07;;;27.50;63.90;;;;;;6351788;27;20229;-63
2021/07/04 13:44:07;;;;;;;6.90;6.30;;;27.50;64.10;;;;;;6351369;28;20224;-63
2021/07/04 13:47:10;;;;;;;5.70;5.30;;;27.40;63.90;;;;;;6377004;27;20230;-64
2021/07/04 13:50:13;;;;;;;6.73;5.90;;;27.40;63.80;;;;;;6350581;28;20224;-63
2021/07/04 13:53:18;;;;;;;6.53;5.77;;;27.50;63.60;;;;;;6352913;27;20211;-62
2021/07/04 13:56:21;;;;;;;6.77;6.27;;;27.20;63.60;;;;;;6374996;27;20234;-63
2021/07/04 13:59:26;;;;;;;6.70;6.10;;;27.10;63.60;;;;;;6351346;28;20281;-61
2021/07/04 14:02:29;;;;;;;6.80;6.30;;;26.60;64.80;;;;;;6354285;27;20201;-62
2021/07/04 14:05:32;;;;;;;5.77;5.37;;;26.70;65.00;;;;;;6373702;27;20225;-62
2021/07/04 14:08:35;;;;;;;6.10;5.60;;;26.60;65.50;;;;;;6351515;28;20220;-62
2021/07/04 14:11:38;;;;;;;6.80;6.20;;;26.60;65.50;;;;;;6351087;28;20221;-63
2021/07/04 14:14:43;;;;;;;5.93;5.43;;;26.80;65.50;;;;;;6350932;28;20225;-62
2021/07/04 14:17:46;;;;;;;6.00;5.50;;;26.80;64.60;;;;;;6341681;28;20224;-63
2021/07/04 14:20:50;;;;;;;7.10;6.50;;;26.50;65.70;;;;;;6351135;28;20229;-63
2021/07/04 14:23:54;;;;;;;6.53;5.93;;;26.40;66.20;;;;;;6350765;28;20228;-62
2021/07/04 14:26:58;;;;;;;5.83;5.37;;;26.60;65.90;;;;;;6351230;28;20221;-62
2021/07/04 14:30:03;;;;;;;6.73;6.13;;;26.70;65.90;;;;;;6350334;28;20828;-62
2021/07/04 14:33:07;;;;;;;6.37;5.87;;;26.40;66.90;;;;;;6350556;28;20232;-63
2021/07/04 14:36:11;;;;;;;8.57;6.47;;;26.50;66.50;;;;;;6350218;28;20225;-63
2021/07/04 14:39:15;;;;;;;5.93;5.43;;;26.60;66.10;;;;;;6350466;28;20228;-63
2021/07/04 14:42:18;;;;;;;5.97;5.57;;;26.60;65.90;;;;;;6350511;28;20251;-63
2021/07/04 14:45:23;;;;;;;6.40;5.90;;;26.40;65.70;;;;;;6349982;28;20240;-64
2021/07/04 14:48:26;;;;;;;6.83;6.30;;;26.30;67.10;;;;;;6350370;28;20225;-62
2021/07/04 14:51:30;;;;;;;6.20;5.70;;;26.30;67.40;;;;;;6349976;28;20233;-63
2021/07/04 14:54:34;;;;;;;5.77;5.37;;;26.40;67.00;;;;;;6350098;28;20547;-62
2021/07/04 14:57:37;;;;;;;6.60;5.97;;;26.10;66.80;;;;;;6349664;28;20752;-62
2021/07/04 15:00:42;;;;;;;6.33;5.77;;;26.20;66.90;;;;;;6349346;28;20221;-63
2021/07/04 15:03:45;;;;;;;6.33;5.83;;;26.10;67.20;;;;;;6349385;28;20233;-63
2021/07/04 15:06:48;;;;;;;6.70;6.20;;;26.10;67.60;;;;;;6350082;28;20225;-64
2021/07/04 15:09:51;;;;;;;6.77;6.07;;;26.20;67.10;;;;;;6349577;28;20232;-64
2021/07/04 15:12:55;;;;;;;6.60;6.00;;;26.20;67.60;;;;;;6349655;28;20239;-63
2021/07/04 15:16:00;;;;;;;5.50;5.10;;;26.10;67.40;;;;;;6349171;28;20233;-65
2021/07/04 15:19:04;;;;;;;6.87;6.17;;;26.10;67.40;;;;;;6349752;28;20677;-63
2021/07/04 15:22:07;;;;;;;6.23;5.73;;;26.10;67.60;;;;;;6344886;28;20583;-63
2021/07/04 15:25:12;;;;;;;6.60;6.00;;;26.20;67.40;;;;;;6349569;28;20293;-63
2021/07/04 15:28:15;;;;;;;6.40;5.80;;;26.30;66.90;;;;;;6349235;28;20243;-63
2021/07/04 15:31:19;;;;;;;6.67;6.07;;;26.40;65.60;;;;;;6349374;28;20239;-63
2021/07/04 15:34:23;;;;;;;5.80;5.20;;;26.20;65.60;;;;;;6349498;28;20235;-62
2021/07/04 15:37:29;;;;;;;5.57;5.17;;;26.20;65.60;;;;;;6349152;28;20562;-62
2021/07/04 15:40:32;;;;;;;6.77;6.17;;;26.50;65.80;;;;;;6348771;28;20696;-64
2021/07/04 15:43:35;;;;;;;7.40;6.30;;;26.80;64.50;;;;;;6348970;28;20221;-64
2021/07/04 15:46:45;;;;;;;6.70;6.20;;;26.90;63.70;;;;;;6349178;28;20278;-63
2021/07/04 15:49:48;;;;;;;6.50;6.00;;;26.60;64.00;;;;;;6369465;27;20674;-63
2021/07/04 15:52:51;;;;;;;6.10;5.60;;;26.50;64.30;;;;;;6351856;27;20240;-62
2021/07/04 15:55:56;;;;;;;7.70;6.30;;;26.50;64.30;;;;;;6348832;28;20307;-62
2021/07/04 15:58:59;;;;;;;8.80;5.90;;;26.70;65.90;;;;;;6348772;28;20239;-67